sensor_id;sensor_type;location;lat;lon;timestamp;pressure;altitude;pressure_sealevel;temperature;humidity
37856;BME280;23694;43.274;26.924;2023-05-23T00:01:02;98534.84;;;16.30;78.10
37856;BME280;23694;43.274;26.924;2023-05-23T00:03:31;98535.00;;;16.28;78.17
37856;BME280;23694;43.274;26.924;2023-05-23T00:05:58;98540.66;;;16.33;77.63
37856;BME280;23694;43.274;26.924;2023-05-23T00:08:24;98539.31;;;16.29;77.80
37856;BME280;23694;43.274;26.924;2023-05-23T00:10:50;98535.28;;;16.25;77.94
37856;BME280;23694;43.274;26.924;2023-05-23T00:13:17;98538.97;;;16.14;78.53
37856;BME280;23694;43.274;26.924;2023-05-23T00:15:43;98539.94;;;16.13;78.99
37856;BME280;23694;43.274;26.924;2023-05-23T00:18:10;98544.94;;;16.16;78.48
37856;BME280;23694;43.274;26.924;2023-05-23T00:20:37;98540.94;;;16.12;78.43
37856;BME280;23694;43.274;26.924;2023-05-23T00:23:07;98542.75;;;16.12;78.27
37856;BME280;23694;43.274;26.924;2023-05-23T00:25:37;98540.00;;;16.04;78.53
37856;BME280;23694;43.274;26.924;2023-05-23T00:28:05;98537.59;;;16.10;78.60
37856;BME280;23694;43.274;26.924;2023-05-23T00:30:32;98553.47;;;16.10;78.58
37856;BME280;23694;43.274;26.924;2023-05-23T00:32:58;98545.97;;;16.06;78.88
37856;BME280;23694;43.274;26.924;2023-05-23T00:35:25;98544.53;;;16.11;78.66
37856;BME280;23694;43.274;26.924;2023-05-23T00:37:51;98540.00;;;16.04;78.59
37856;BME280;23694;43.274;26.924;2023-05-23T00:40:17;98539.56;;;16.08;78.75
37856;BME280;23694;43.274;26.924;2023-05-23T00:42:44;98542.34;;;16.07;78.56
37856;BME280;23694;43.274;26.924;2023-05-23T00:45:10;98538.50;;;16.01;78.55
37856;BME280;23694;43.274;26.924;2023-05-23T00:47:43;98540.69;;;16.06;78.55
37856;BME280;23694;43.274;26.924;2023-05-23T00:50:11;98542.81;;;16.02;78.09
37856;BME280;23694;43.274;26.924;2023-05-23T00:52:39;98543.22;;;15.80;78.88
37856;BME280;23694;43.274;26.924;2023-05-23T00:55:06;98529.66;;;15.93;78.77
37856;BME280;23694;43.274;26.924;2023-05-23T00:57:34;98536.84;;;16.00;78.67
37856;BME280;23694;43.274;26.924;2023-05-23T01:00:07;98532.53;;;15.99;78.53
37856;BME280;23694;43.274;26.924;2023-05-23T01:02:33;98532.69;;;15.98;78.68
37856;BME280;23694;43.274;26.924;2023-05-23T01:05:02;98541.38;;;16.08;78.07
37856;BME280;23694;43.274;26.924;2023-05-23T01:07:28;98540.69;;;16.06;78.32
37856;BME280;23694;43.274;26.924;2023-05-23T01:09:54;98538.72;;;16.08;78.27
37856;BME280;23694;43.274;26.924;2023-05-23T01:17:25;98543.47;;;16.04;78.36
37856;BME280;23694;43.274;26.924;2023-05-23T01:19:59;98546.19;;;15.95;78.92
37856;BME280;23694;43.274;26.924;2023-05-23T01:25:46;98536.13;;;15.80;79.52
37856;BME280;23694;43.274;26.924;2023-05-23T01:28:19;98527.81;;;15.75;79.86
37856;BME280;23694;43.274;26.924;2023-05-23T01:30:47;98528.56;;;15.58;80.60
37856;BME280;23694;43.274;26.924;2023-05-23T01:33:16;98537.19;;;15.60;81.07
37856;BME280;23694;43.274;26.924;2023-05-23T01:35:43;98531.22;;;15.58;80.62
37856;BME280;23694;43.274;26.924;2023-05-23T01:38:10;98535.09;;;15.64;80.82
37856;BME280;23694;43.274;26.924;2023-05-23T01:40:36;98533.72;;;15.60;81.12
37856;BME280;23694;43.274;26.924;2023-05-23T01:43:02;98528.31;;;15.61;81.19
37856;BME280;23694;43.274;26.924;2023-05-23T01:45:28;98532.03;;;15.59;81.70
37856;BME280;23694;43.274;26.924;2023-05-23T01:47:55;98534.97;;;15.65;81.72
37856;BME280;23694;43.274;26.924;2023-05-23T01:50:23;98540.25;;;15.65;81.62
37856;BME280;23694;43.274;26.924;2023-05-23T01:52:49;98529.53;;;15.67;81.87
37856;BME280;23694;43.274;26.924;2023-05-23T01:55:18;98531.88;;;15.70;82.20
37856;BME280;23694;43.274;26.924;2023-05-23T01:57:50;98528.16;;;15.63;82.47
37856;BME280;23694;43.274;26.924;2023-05-23T02:00:16;98536.31;;;15.69;82.43
37856;BME280;23694;43.274;26.924;2023-05-23T02:02:43;98535.97;;;15.82;82.11
37856;BME280;23694;43.274;26.924;2023-05-23T02:05:09;98542.78;;;15.84;81.79
37856;BME280;23694;43.274;26.924;2023-05-23T02:07:36;98530.47;;;15.75;82.05
37856;BME280;23694;43.274;26.924;2023-05-23T02:10:03;98543.31;;;15.88;82.10
37856;BME280;23694;43.274;26.924;2023-05-23T02:12:29;98537.44;;;15.94;81.75
37856;BME280;23694;43.274;26.924;2023-05-23T02:14:55;98529.13;;;15.89;81.87
37856;BME280;23694;43.274;26.924;2023-05-23T02:17:21;98546.50;;;15.92;81.95
37856;BME280;23694;43.274;26.924;2023-05-23T02:19:49;98546.97;;;15.77;83.21
37856;BME280;23694;43.274;26.924;2023-05-23T02:22:15;98540.44;;;15.81;83.14
37856;BME280;23694;43.274;26.924;2023-05-23T02:24:41;98544.44;;;15.85;82.94
37856;BME280;23694;43.274;26.924;2023-05-23T02:27:07;98535.28;;;15.80;83.08
37856;BME280;23694;43.274;26.924;2023-05-23T02:29:33;98527.75;;;15.85;82.58
37856;BME280;23694;43.274;26.924;2023-05-23T02:31:59;98535.19;;;15.99;82.15
37856;BME280;23694;43.274;26.924;2023-05-23T02:34:25;98541.44;;;15.98;81.92
37856;BME280;23694;43.274;26.924;2023-05-23T02:36:51;98540.69;;;16.06;81.84
37856;BME280;23694;43.274;26.924;2023-05-23T02:39:18;98541.53;;;16.06;81.52
37856;BME280;23694;43.274;26.924;2023-05-23T02:41:44;98549.91;;;16.02;81.90
37856;BME280;23694;43.274;26.924;2023-05-23T02:44:10;98548.78;;;16.04;81.83
37856;BME280;23694;43.274;26.924;2023-05-23T02:46:36;98546.81;;;16.06;81.81
37856;BME280;23694;43.274;26.924;2023-05-23T02:49:02;98546.88;;;15.97;82.44
37856;BME280;23694;43.274;26.924;2023-05-23T02:51:28;98545.75;;;15.99;82.53
37856;BME280;23694;43.274;26.924;2023-05-23T02:53:54;98557.00;;;16.01;82.48
37856;BME280;23694;43.274;26.924;2023-05-23T02:56:20;98552.47;;;16.11;82.22
37856;BME280;23694;43.274;26.924;2023-05-23T02:58:47;98547.94;;;16.22;81.80
37856;BME280;23694;43.274;26.924;2023-05-23T03:01:13;98546.44;;;16.19;81.81
37856;BME280;23694;43.274;26.924;2023-05-23T03:03:39;98547.94;;;16.22;81.30
37856;BME280;23694;43.274;26.924;2023-05-23T03:06:06;98557.22;;;16.08;82.18
37856;BME280;23694;43.274;26.924;2023-05-23T03:08:35;98557.28;;;15.98;82.88
37856;BME280;23694;43.274;26.924;2023-05-23T03:11:01;98554.97;;;16.13;82.47
37856;BME280;23694;43.274;26.924;2023-05-23T03:13:27;98564.94;;;16.19;81.67
37856;BME280;23694;43.274;26.924;2023-05-23T03:15:53;98565.31;;;16.06;82.75
37856;BME280;23694;43.274;26.924;2023-05-23T03:18:19;98563.88;;;16.12;82.72
37856;BME280;23694;43.274;26.924;2023-05-23T03:20:45;98567.28;;;16.22;82.19
37856;BME280;23694;43.274;26.924;2023-05-23T03:23:11;98564.56;;;16.14;82.68
37856;BME280;23694;43.274;26.924;2023-05-23T03:25:37;98560.47;;;16.20;82.45
37856;BME280;23694;43.274;26.924;2023-05-23T03:28:03;98559.34;;;16.22;82.25
37856;BME280;23694;43.274;26.924;2023-05-23T03:30:29;98561.44;;;16.28;81.61
37856;BME280;23694;43.274;26.924;2023-05-23T03:32:55;98560.88;;;16.25;81.98
37856;BME280;23694;43.274;26.924;2023-05-23T03:35:21;98563.25;;;16.28;81.64
37856;BME280;23694;43.274;26.924;2023-05-23T03:37:48;98567.97;;;16.24;81.90
37856;BME280;23694;43.274;26.924;2023-05-23T03:40:14;98572.91;;;16.37;81.49
37856;BME280;23694;43.274;26.924;2023-05-23T03:42:40;98571.56;;;16.51;80.80
37856;BME280;23694;43.274;26.924;2023-05-23T03:45:06;98568.84;;;16.42;81.24
37856;BME280;23694;43.274;26.924;2023-05-23T03:47:32;98572.00;;;16.64;81.05
37856;BME280;23694;43.274;26.924;2023-05-23T03:49:58;98575.56;;;16.72;80.50
37856;BME280;23694;43.274;26.924;2023-05-23T03:52:24;98575.34;;;16.84;79.61
37856;BME280;23694;43.274;26.924;2023-05-23T03:54:50;98578.75;;;16.94;79.81
37856;BME280;23694;43.274;26.924;2023-05-23T03:57:16;98584.16;;;17.10;79.38
37856;BME280;23694;43.274;26.924;2023-05-23T03:59:42;98585.84;;;16.93;79.05
37856;BME280;23694;43.274;26.924;2023-05-23T04:02:08;98578.66;;;17.03;78.95
37856;BME280;23694;43.274;26.924;2023-05-23T04:04:35;98579.47;;;17.30;77.49
37856;BME280;23694;43.274;26.924;2023-05-23T04:07:01;98571.38;;;17.31;76.85
37856;BME280;23694;43.274;26.924;2023-05-23T04:09:27;98577.56;;;17.14;77.37
37856;BME280;23694;43.274;26.924;2023-05-23T04:11:53;98588.31;;;17.13;78.32
37856;BME280;23694;43.274;26.924;2023-05-23T04:14:19;98595.00;;;17.25;77.45
37856;BME280;23694;43.274;26.924;2023-05-23T04:16:47;98587.63;;;17.36;76.86
37856;BME280;23694;43.274;26.924;2023-05-23T04:19:13;98588.69;;;17.69;74.80
37856;BME280;23694;43.274;26.924;2023-05-23T04:21:39;98585.22;;;17.51;75.24
37856;BME280;23694;43.274;26.924;2023-05-23T04:24:05;98589.03;;;17.49;75.86
37856;BME280;23694;43.274;26.924;2023-05-23T04:26:31;98582.06;;;17.48;76.38
37856;BME280;23694;43.274;26.924;2023-05-23T04:28:57;98581.19;;;17.39;77.02
37856;BME280;23694;43.274;26.924;2023-05-23T04:31:23;98579.41;;;17.48;76.67
37856;BME280;23694;43.274;26.924;2023-05-23T04:33:50;98577.97;;;17.53;76.43
37856;BME280;23694;43.274;26.924;2023-05-23T04:36:17;98581.19;;;17.39;76.80
37856;BME280;23694;43.274;26.924;2023-05-23T04:38:43;98575.38;;;17.35;77.01
37856;BME280;23694;43.274;26.924;2023-05-23T04:41:09;98582.50;;;17.35;77.54
37856;BME280;23694;43.274;26.924;2023-05-23T04:43:35;98574.19;;;17.56;76.77
37856;BME280;23694;43.274;26.924;2023-05-23T04:46:10;98585.31;;;17.59;77.23
37856;BME280;23694;43.274;26.924;2023-05-23T04:48:38;98589.09;;;17.83;76.44
37856;BME280;23694;43.274;26.924;2023-05-23T04:51:04;98581.47;;;17.80;76.47
37856;BME280;23694;43.274;26.924;2023-05-23T04:53:31;98592.41;;;17.85;75.46
37856;BME280;23694;43.274;26.924;2023-05-23T04:55:57;98592.16;;;18.04;75.94
37856;BME280;23694;43.274;26.924;2023-05-23T04:58:23;98587.69;;;18.13;75.05
37856;BME280;23694;43.274;26.924;2023-05-23T05:00:49;98592.34;;;18.11;75.27
37856;BME280;23694;43.274;26.924;2023-05-23T05:03:15;98589.19;;;18.15;74.56
37856;BME280;23694;43.274;26.924;2023-05-23T05:05:41;98593.50;;;18.16;74.87
37856;BME280;23694;43.274;26.924;2023-05-23T05:08:07;98590.44;;;18.45;74.58
37856;BME280;23694;43.274;26.924;2023-05-23T05:10:33;98595.13;;;19.41;69.60
37856;BME280;23694;43.274;26.924;2023-05-23T05:12:59;98588.66;;;19.51;68.61
37856;BME280;23694;43.274;26.924;2023-05-23T05:15:25;98591.16;;;19.37;68.87
37856;BME280;23694;43.274;26.924;2023-05-23T05:17:51;98593.47;;;19.31;69.75
37856;BME280;23694;43.274;26.924;2023-05-23T05:20:18;98599.41;;;19.50;68.48
37856;BME280;23694;43.274;26.924;2023-05-23T05:22:44;98600.25;;;19.50;68.50
37856;BME280;23694;43.274;26.924;2023-05-23T05:25:10;98603.06;;;19.49;68.37
37856;BME280;23694;43.274;26.924;2023-05-23T05:27:37;98607.75;;;19.30;68.93
37856;BME280;23694;43.274;26.924;2023-05-23T05:30:08;98610.59;;;19.21;69.57
37856;BME280;23694;43.274;26.924;2023-05-23T05:32:34;98610.75;;;19.36;68.73
37856;BME280;23694;43.274;26.924;2023-05-23T05:35:01;98604.63;;;19.19;69.74
37856;BME280;23694;43.274;26.924;2023-05-23T05:37:27;98604.94;;;19.24;69.32
37856;BME280;23694;43.274;26.924;2023-05-23T05:39:54;98604.09;;;19.31;68.92
37856;BME280;23694;43.274;26.924;2023-05-23T05:42:21;98601.28;;;19.57;68.30
37856;BME280;23694;43.274;26.924;2023-05-23T05:44:48;98607.22;;;19.68;67.40
37856;BME280;23694;43.274;26.924;2023-05-23T05:47:15;98605.69;;;19.81;67.05
37856;BME280;23694;43.274;26.924;2023-05-23T05:49:41;98611.56;;;20.08;66.10
37856;BME280;23694;43.274;26.924;2023-05-23T05:52:07;98614.13;;;20.40;64.44
37856;BME280;23694;43.274;26.924;2023-05-23T05:54:34;98617.31;;;20.27;64.34
37856;BME280;23694;43.274;26.924;2023-05-23T05:57:04;98607.09;;;20.47;63.92
37856;BME280;23694;43.274;26.924;2023-05-23T05:59:30;98610.41;;;20.72;62.80
37856;BME280;23694;43.274;26.924;2023-05-23T06:01:56;98603.88;;;21.20;59.79
37856;BME280;23694;43.274;26.924;2023-05-23T06:04:22;98612.53;;;21.75;58.39
37856;BME280;23694;43.274;26.924;2023-05-23T06:06:48;98607.66;;;21.93;56.81
37856;BME280;23694;43.274;26.924;2023-05-23T06:09:15;98599.97;;;22.13;55.53
37856;BME280;23694;43.274;26.924;2023-05-23T06:11:41;98603.91;;;22.17;55.46
37856;BME280;23694;43.274;26.924;2023-05-23T06:14:07;98603.72;;;22.19;54.59
37856;BME280;23694;43.274;26.924;2023-05-23T06:16:33;98610.06;;;22.03;54.67
37856;BME280;23694;43.274;26.924;2023-05-23T06:18:59;98613.44;;;21.67;54.82
37856;BME280;23694;43.274;26.924;2023-05-23T06:21:25;98607.56;;;21.72;55.50
37856;BME280;23694;43.274;26.924;2023-05-23T06:23:52;98609.19;;;22.02;55.60
37856;BME280;23694;43.274;26.924;2023-05-23T06:26:18;98610.22;;;22.01;55.38
37856;BME280;23694;43.274;26.924;2023-05-23T06:28:44;98601.50;;;22.07;55.72
37856;BME280;23694;43.274;26.924;2023-05-23T06:31:10;98602.16;;;22.24;53.94
37856;BME280;23694;43.274;26.924;2023-05-23T06:33:36;98609.44;;;22.16;54.84
37856;BME280;23694;43.274;26.924;2023-05-23T06:36:02;98605.88;;;22.66;54.14
37856;BME280;23694;43.274;26.924;2023-05-23T06:38:30;98604.66;;;22.68;54.05
37856;BME280;23694;43.274;26.924;2023-05-23T06:40:58;98607.41;;;22.90;54.48
37856;BME280;23694;43.274;26.924;2023-05-23T06:43:25;98601.41;;;23.09;53.68
37856;BME280;23694;43.274;26.924;2023-05-23T06:45:51;98593.13;;;23.04;51.63
37856;BME280;23694;43.274;26.924;2023-05-23T06:48:17;98597.31;;;23.13;52.12
37856;BME280;23694;43.274;26.924;2023-05-23T06:50:43;98593.25;;;23.17;51.95
37856;BME280;23694;43.274;26.924;2023-05-23T06:53:09;98597.88;;;23.30;52.82
37856;BME280;23694;43.274;26.924;2023-05-23T06:55:35;98592.97;;;23.33;48.54
37856;BME280;23694;43.274;26.924;2023-05-23T06:58:01;98590.91;;;23.57;49.45
37856;BME280;23694;43.274;26.924;2023-05-23T07:00:29;98593.53;;;23.29;49.82
37856;BME280;23694;43.274;26.924;2023-05-23T07:02:58;98591.38;;;22.90;50.07
37856;BME280;23694;43.274;26.924;2023-05-23T07:05:26;98598.63;;;22.60;50.83
37856;BME280;23694;43.274;26.924;2023-05-23T07:07:53;98598.03;;;22.79;49.44
37856;BME280;23694;43.274;26.924;2023-05-23T07:10:19;98594.38;;;22.65;48.86
37856;BME280;23694;43.274;26.924;2023-05-23T07:12:46;98590.53;;;22.32;50.12
37856;BME280;23694;43.274;26.924;2023-05-23T07:15:12;98593.28;;;22.38;50.35
37856;BME280;23694;43.274;26.924;2023-05-23T07:17:39;98582.94;;;22.14;50.33
37856;BME280;23694;43.274;26.924;2023-05-23T07:20:06;98594.78;;;21.82;51.92
37856;BME280;23694;43.274;26.924;2023-05-23T07:22:33;98584.75;;;21.84;50.99
37856;BME280;23694;43.274;26.924;2023-05-23T07:24:59;98590.09;;;21.99;51.76
37856;BME280;23694;43.274;26.924;2023-05-23T07:27:28;98573.72;;;22.02;52.88
37856;BME280;23694;43.274;26.924;2023-05-23T07:29:54;98578.78;;;21.82;53.44
37856;BME280;23694;43.274;26.924;2023-05-23T07:32:22;98580.63;;;21.96;52.90
37856;BME280;23694;43.274;26.924;2023-05-23T07:34:48;98586.22;;;21.87;54.30
37856;BME280;23694;43.274;26.924;2023-05-23T07:37:14;98580.53;;;22.04;54.48
37856;BME280;23694;43.274;26.924;2023-05-23T07:39:40;98593.38;;;22.01;55.15
37856;BME280;23694;43.274;26.924;2023-05-23T07:42:06;98594.13;;;22.09;55.15
37856;BME280;23694;43.274;26.924;2023-05-23T07:44:32;98584.69;;;22.07;54.88
37856;BME280;23694;43.274;26.924;2023-05-23T07:46:58;98589.00;;;22.08;55.07
37856;BME280;23694;43.274;26.924;2023-05-23T07:49:25;98589.63;;;22.10;54.68
37856;BME280;23694;43.274;26.924;2023-05-23T07:51:51;98591.13;;;22.12;53.01
37856;BME280;23694;43.274;26.924;2023-05-23T07:54:17;98596.97;;;21.93;52.73
37856;BME280;23694;43.274;26.924;2023-05-23T07:56:43;98591.03;;;21.76;53.77
37856;BME280;23694;43.274;26.924;2023-05-23T07:59:09;98592.59;;;21.86;53.89
37856;BME280;23694;43.274;26.924;2023-05-23T08:01:35;98591.38;;;21.88;54.40
37856;BME280;23694;43.274;26.924;2023-05-23T08:04:02;98597.09;;;21.85;54.88
37856;BME280;23694;43.274;26.924;2023-05-23T08:06:28;98602.31;;;22.08;54.24
37856;BME280;23694;43.274;26.924;2023-05-23T08:08:54;98594.69;;;22.05;52.67
37856;BME280;23694;43.274;26.924;2023-05-23T08:11:20;98588.53;;;22.04;52.93
37856;BME280;23694;43.274;26.924;2023-05-23T08:13:46;98586.59;;;22.28;51.44
37856;BME280;23694;43.274;26.924;2023-05-23T08:16:12;98591.06;;;22.42;51.24
37856;BME280;23694;43.274;26.924;2023-05-23T08:18:38;98587.75;;;22.61;48.38
37856;BME280;23694;43.274;26.924;2023-05-23T08:21:04;98583.13;;;22.70;49.05
37856;BME280;23694;43.274;26.924;2023-05-23T08:23:31;98592.91;;;22.41;49.34
37856;BME280;23694;43.274;26.924;2023-05-23T08:25:57;98569.19;;;22.32;50.18
37856;BME280;23694;43.274;26.924;2023-05-23T08:28:23;98567.66;;;22.08;51.12
37856;BME280;23694;43.274;26.924;2023-05-23T08:30:49;98580.53;;;22.04;51.63
37856;BME280;23694;43.274;26.924;2023-05-23T08:33:16;98568.84;;;22.20;51.96
37856;BME280;23694;43.274;26.924;2023-05-23T08:35:42;98572.75;;;22.39;50.52
37856;BME280;23694;43.274;26.924;2023-05-23T08:38:08;98570.53;;;22.42;50.05
37856;BME280;23694;43.274;26.924;2023-05-23T08:40:35;98563.94;;;22.60;48.89
37856;BME280;23694;43.274;26.924;2023-05-23T08:43:01;98569.47;;;22.80;49.08
37856;BME280;23694;43.274;26.924;2023-05-23T08:45:27;98577.00;;;22.91;48.70
37856;BME280;23694;43.274;26.924;2023-05-23T08:47:59;98577.41;;;22.88;48.60
37856;BME280;23694;43.274;26.924;2023-05-23T08:50:27;98578.69;;;22.77;49.03
37856;BME280;23694;43.274;26.924;2023-05-23T08:52:56;98574.78;;;22.94;48.23
37856;BME280;23694;43.274;26.924;2023-05-23T08:55:24;98573.09;;;23.15;48.42
37856;BME280;23694;43.274;26.924;2023-05-23T08:57:54;98576.91;;;23.33;48.17
37856;BME280;23694;43.274;26.924;2023-05-23T09:00:21;98570.88;;;23.46;46.63
37856;BME280;23694;43.274;26.924;2023-05-23T09:02:49;98564.09;;;23.50;47.65
37856;BME280;23694;43.274;26.924;2023-05-23T09:05:16;98570.91;;;23.53;47.37
37856;BME280;23694;43.274;26.924;2023-05-23T09:07:44;98560.56;;;23.43;45.52
37856;BME280;23694;43.274;26.924;2023-05-23T09:10:13;98576.91;;;23.33;46.43
37856;BME280;23694;43.274;26.924;2023-05-23T09:12:42;98563.31;;;23.00;48.68
37856;BME280;23694;43.274;26.924;2023-05-23T09:15:08;98557.28;;;22.92;46.98
37856;BME280;23694;43.274;26.924;2023-05-23T09:17:35;98551.34;;;22.75;47.80
37856;BME280;23694;43.274;26.924;2023-05-23T09:20:09;98558.63;;;22.81;48.51
37856;BME280;23694;43.274;26.924;2023-05-23T09:22:36;98552.78;;;22.92;47.56
37856;BME280;23694;43.274;26.924;2023-05-23T09:25:04;98562.31;;;23.01;46.69
37856;BME280;23694;43.274;26.924;2023-05-23T09:27:30;98554.47;;;23.00;47.13
37856;BME280;23694;43.274;26.924;2023-05-23T09:29:56;98558.88;;;22.86;46.96
37856;BME280;23694;43.274;26.924;2023-05-23T09:32:22;98556.84;;;22.88;47.64
37856;BME280;23694;43.274;26.924;2023-05-23T09:35:12;98552.88;;;23.05;46.25
37856;BME280;23694;43.274;26.924;2023-05-23T09:37:43;98560.25;;;22.61;47.31
37856;BME280;23694;43.274;26.924;2023-05-23T09:40:13;98567.88;;;22.64;47.61
37856;BME280;23694;43.274;26.924;2023-05-23T09:42:46;98561.91;;;22.62;48.17
37856;BME280;23694;43.274;26.924;2023-05-23T09:45:13;98562.47;;;22.57;47.62
37856;BME280;23694;43.274;26.924;2023-05-23T09:47:48;98563.56;;;22.63;47.92
37856;BME280;23694;43.274;26.924;2023-05-23T09:50:15;98564.94;;;22.59;48.07
37856;BME280;23694;43.274;26.924;2023-05-23T09:52:42;98561.44;;;22.58;47.69
37856;BME280;23694;43.274;26.924;2023-05-23T09:55:08;98566.97;;;22.35;48.68
37856;BME280;23694;43.274;26.924;2023-05-23T09:57:38;98560.22;;;22.18;48.95
37856;BME280;23694;43.274;26.924;2023-05-23T10:00:05;98553.03;;;22.04;48.97
37856;BME280;23694;43.274;26.924;2023-05-23T10:03:01;98553.97;;;21.81;49.84
37856;BME280;23694;43.274;26.924;2023-05-23T10:08:18;98549.00;;;22.08;50.05
37856;BME280;23694;43.274;26.924;2023-05-23T10:13:27;98554.00;;;22.32;49.17
37856;BME280;23694;43.274;26.924;2023-05-23T10:16:01;98551.84;;;22.42;48.27
37856;BME280;23694;43.274;26.924;2023-05-23T10:18:28;98542.81;;;22.65;48.12
37856;BME280;23694;43.274;26.924;2023-05-23T10:21:04;98534.19;;;22.63;47.82
37856;BME280;23694;43.274;26.924;2023-05-23T10:23:32;98541.13;;;22.57;48.22
37856;BME280;23694;43.274;26.924;2023-05-23T10:26:00;98550.53;;;22.53;48.80
37856;BME280;23694;43.274;26.924;2023-05-23T10:28:27;98559.53;;;22.31;49.93
37856;BME280;23694;43.274;26.924;2023-05-23T10:30:53;98552.47;;;22.23;51.13
37856;BME280;23694;43.274;26.924;2023-05-23T10:33:20;98547.59;;;21.97;52.71
37856;BME280;23694;43.274;26.924;2023-05-23T10:36:16;98549.75;;;21.72;55.28
37856;BME280;23694;43.274;26.924;2023-05-23T10:39:15;98550.88;;;21.63;55.84
37856;BME280;23694;43.274;26.924;2023-05-23T10:41:49;98545.19;;;21.51;57.07
37856;BME280;23694;43.274;26.924;2023-05-23T10:44:24;98548.91;;;21.28;57.52
37856;BME280;23694;43.274;26.924;2023-05-23T10:46:56;98549.31;;;21.16;56.96
37856;BME280;23694;43.274;26.924;2023-05-23T10:49:39;98555.34;;;20.96;59.74
37856;BME280;23694;43.274;26.924;2023-05-23T10:52:06;98551.16;;;20.55;64.42
37856;BME280;23694;43.274;26.924;2023-05-23T10:54:52;98560.97;;;20.24;65.10
37856;BME280;23694;43.274;26.924;2023-05-23T10:57:20;98564.03;;;19.74;69.23
37856;BME280;23694;43.274;26.924;2023-05-23T10:59:50;98558.91;;;19.48;69.44
37856;BME280;23694;43.274;26.924;2023-05-23T11:02:27;98550.75;;;19.74;69.83
37856;BME280;23694;43.274;26.924;2023-05-23T11:05:26;98558.19;;;18.98;75.49
37856;BME280;23694;43.274;26.924;2023-05-23T11:08:12;98547.38;;;19.24;75.94
37856;BME280;23694;43.274;26.924;2023-05-23T11:10:52;98537.88;;;19.54;75.28
37856;BME280;23694;43.274;26.924;2023-05-23T11:13:20;98540.56;;;19.85;75.24
37856;BME280;23694;43.274;26.924;2023-05-23T11:15:47;98540.47;;;20.41;73.22
37856;BME280;23694;43.274;26.924;2023-05-23T11:18:39;98543.06;;;20.18;70.83
37856;BME280;23694;43.274;26.924;2023-05-23T11:21:05;98536.94;;;20.09;71.28
37856;BME280;23694;43.274;26.924;2023-05-23T11:23:41;98539.47;;;20.34;71.44
37856;BME280;23694;43.274;26.924;2023-05-23T11:26:30;98545.81;;;21.01;70.70
37856;BME280;23694;43.274;26.924;2023-05-23T11:28:57;98548.28;;;21.40;69.73
37856;BME280;23694;43.274;26.924;2023-05-23T11:31:24;98551.97;;;21.69;69.07
37856;BME280;23694;43.274;26.924;2023-05-23T11:33:53;98557.19;;;21.92;70.51
37856;BME280;23694;43.274;26.924;2023-05-23T11:36:22;98548.72;;;22.03;72.49
37856;BME280;23694;43.274;26.924;2023-05-23T11:38:54;98572.16;;;22.07;68.13
37856;BME280;23694;43.274;26.924;2023-05-23T11:41:20;98574.59;;;21.20;65.78
37856;BME280;23694;43.274;26.924;2023-05-23T11:43:53;98566.53;;;20.45;67.65
37856;BME280;23694;43.274;26.924;2023-05-23T11:46:19;98576.47;;;20.20;68.46
37856;BME280;23694;43.274;26.924;2023-05-23T11:48:46;98573.06;;;19.95;67.99
37856;BME280;23694;43.274;26.924;2023-05-23T11:51:13;98574.09;;;19.23;70.87
37856;BME280;23694;43.274;26.924;2023-05-23T11:53:40;98579.56;;;18.73;74.18
37856;BME280;23694;43.274;26.924;2023-05-23T11:56:06;98579.53;;;18.56;74.94
37856;BME280;23694;43.274;26.924;2023-05-23T11:58:36;98579.31;;;18.33;75.76
37856;BME280;23694;43.274;26.924;2023-05-23T12:01:10;98580.66;;;18.46;75.12
37856;BME280;23694;43.274;26.924;2023-05-23T12:03:54;98583.50;;;18.60;76.21
37856;BME280;23694;43.274;26.924;2023-05-23T12:06:21;98579.94;;;18.94;78.20
37856;BME280;23694;43.274;26.924;2023-05-23T12:08:51;98574.25;;;19.21;77.75
37856;BME280;23694;43.274;26.924;2023-05-23T12:11:17;98579.00;;;19.50;76.12
37856;BME280;23694;43.274;26.924;2023-05-23T12:13:43;98579.78;;;19.83;76.75
37856;BME280;23694;43.274;26.924;2023-05-23T12:16:12;98571.84;;;20.06;77.87
37856;BME280;23694;43.274;26.924;2023-05-23T12:18:41;98567.31;;;20.15;75.19
37856;BME280;23694;43.274;26.924;2023-05-23T12:21:07;98577.19;;;20.37;73.97
37856;BME280;23694;43.274;26.924;2023-05-23T12:23:34;98575.03;;;20.41;73.71
37856;BME280;23694;43.274;26.924;2023-05-23T12:26:04;98574.94;;;20.26;75.40
37856;BME280;23694;43.274;26.924;2023-05-23T12:28:38;98574.47;;;20.22;75.45
37856;BME280;23694;43.274;26.924;2023-05-23T12:31:26;98568.63;;;20.27;75.01
37856;BME280;23694;43.274;26.924;2023-05-23T12:33:52;98552.84;;;20.25;74.20
37856;BME280;23694;43.274;26.924;2023-05-23T12:36:25;98553.00;;;20.55;74.72
37856;BME280;23694;43.274;26.924;2023-05-23T12:38:52;98558.38;;;20.47;73.46
37856;BME280;23694;43.274;26.924;2023-05-23T12:41:19;98554.19;;;20.21;75.01
37856;BME280;23694;43.274;26.924;2023-05-23T12:43:54;98559.25;;;20.62;73.51
37856;BME280;23694;43.274;26.924;2023-05-23T12:46:21;98566.75;;;20.58;72.10
37856;BME280;23694;43.274;26.924;2023-05-23T12:48:48;98567.72;;;20.43;72.84
37856;BME280;23694;43.274;26.924;2023-05-23T12:51:15;98558.66;;;19.90;71.62
37856;BME280;23694;43.274;26.924;2023-05-23T12:53:47;98550.25;;;19.70;70.27
37856;BME280;23694;43.274;26.924;2023-05-23T12:56:16;98552.59;;;19.49;71.83
37856;BME280;23694;43.274;26.924;2023-05-23T12:58:42;98549.78;;;19.50;71.83
37856;BME280;23694;43.274;26.924;2023-05-23T13:01:08;98552.66;;;19.57;71.25
37856;BME280;23694;43.274;26.924;2023-05-23T13:03:35;98553.44;;;19.66;71.41
37856;BME280;23694;43.274;26.924;2023-05-23T13:06:02;98553.53;;;19.80;70.67
37856;BME280;23694;43.274;26.924;2023-05-23T13:08:28;98548.38;;;19.87;70.97